createdAt,value
2019-01-09T00:01:42.271Z,4.88
2019-01-09T00:04:14.644Z,4.86
2019-01-09T00:06:47.148Z,4.94
2019-01-09T00:09:19.032Z,4.90
2019-01-09T00:11:53.739Z,4.90
2019-01-09T00:14:25.758Z,4.84
2019-01-09T00:16:58.094Z,4.86
2019-01-09T00:19:30.609Z,4.92
2019-01-09T00:22:03.868Z,4.86
2019-01-09T00:24:36.506Z,4.83
2019-01-09T00:27:08.397Z,4.80
2019-01-09T00:29:41.104Z,4.80
2019-01-09T00:32:14.048Z,4.86
2019-01-09T00:34:46.495Z,4.77
2019-01-09T00:37:18.341Z,4.77
2019-01-09T00:39:50.760Z,4.82
2019-01-09T00:42:23.352Z,4.86
2019-01-09T00:44:55.854Z,4.87
2019-01-09T00:47:27.965Z,4.85
2019-01-09T00:50:01.054Z,4.79
2019-01-09T00:52:33.799Z,4.80
2019-01-09T00:55:05.810Z,4.89
2019-01-09T00:57:38.961Z,4.90
2019-01-09T01:00:15.808Z,4.73
2019-01-09T01:03:34.640Z,4.78
2019-01-09T01:07:20.300Z,4.69
2019-01-09T01:11:09.191Z,4.76
2019-01-09T01:14:39.837Z,4.76
2019-01-09T01:17:56.799Z,4.83
2019-01-09T01:21:15.198Z,4.81
2019-01-09T01:24:51.880Z,4.77
2019-01-09T01:28:21.804Z,4.79
2019-01-09T01:31:59.874Z,4.73
2019-01-09T01:35:33.036Z,4.81
2019-01-09T01:39:20.161Z,4.86
2019-01-09T01:42:31.032Z,4.90
2019-01-09T01:46:39.701Z,4.85
2019-01-09T01:50:13.739Z,4.88
2019-01-09T01:53:26.278Z,4.91
2019-01-09T01:56:52.263Z,4.85
2019-01-09T02:00:21.006Z,4.81
2019-01-09T02:03:55.161Z,4.77
2019-01-09T02:07:41.043Z,4.77
2019-01-09T02:11:11.127Z,4.84
2019-01-09T02:14:36.619Z,4.93
2019-01-09T02:18:03.134Z,4.99
2019-01-09T02:21:45.055Z,4.95
2019-01-09T02:25:21.695Z,4.93
2019-01-09T02:28:41.335Z,5.00
2019-01-09T02:31:45.750Z,4.93
2019-01-09T02:34:18.007Z,4.88
2019-01-09T02:36:50.559Z,4.93
2019-01-09T02:39:22.584Z,4.92
2019-01-09T02:41:54.394Z,4.95
2019-01-09T02:44:32.076Z,4.91
2019-01-09T02:47:00.357Z,4.84
2019-01-09T02:49:32.292Z,4.85
2019-01-09T02:52:05.511Z,4.90
2019-01-09T02:54:37.398Z,4.83
2019-01-09T02:57:09.282Z,4.83
2019-01-09T02:59:42.454Z,4.81
2019-01-09T03:02:14.577Z,4.77
2019-01-09T03:04:46.667Z,4.90
2019-01-09T03:07:20.103Z,4.85
2019-01-09T03:09:53.445Z,4.84
2019-01-09T03:12:26.043Z,4.85
2019-01-09T03:14:58.341Z,4.75
2019-01-09T03:17:30.997Z,4.63
2019-01-09T03:20:03.228Z,4.62
2019-01-09T03:22:35.148Z,4.64
2019-01-09T03:25:07.631Z,4.65
2019-01-09T03:27:39.793Z,4.70
2019-01-09T03:30:12.195Z,4.74
2019-01-09T03:32:45.485Z,4.71
2019-01-09T03:35:17.632Z,4.69
2019-01-09T03:37:49.479Z,4.65
2019-01-09T03:40:21.606Z,4.69
2019-01-09T03:42:54.369Z,4.68
2019-01-09T03:45:28.782Z,4.71
2019-01-09T03:47:59.918Z,4.67
2019-01-09T03:50:31.474Z,4.50
2019-01-09T03:53:03.026Z,4.59
2019-01-09T03:55:34.863Z,4.53
2019-01-09T03:58:07.491Z,4.62
2019-01-09T04:00:39.814Z,4.61
2019-01-09T04:03:12.206Z,4.61
2019-01-09T04:05:44.279Z,4.58
2019-01-09T04:08:17.296Z,4.54
2019-01-09T04:10:51.064Z,4.59
2019-01-09T04:13:24.043Z,4.61
2019-01-09T04:15:56.564Z,4.63
2019-01-09T04:18:28.793Z,4.67
2019-01-09T04:21:01.183Z,4.67
2019-01-09T04:23:33.678Z,4.60
2019-01-09T04:26:05.931Z,4.56
2019-01-09T04:28:37.919Z,4.64
2019-01-09T04:31:11.004Z,4.65
2019-01-09T04:33:43.101Z,4.64
2019-01-09T04:36:14.928Z,4.67
2019-01-09T04:38:47.555Z,4.73
2019-01-09T04:41:20.133Z,4.74
2019-01-09T04:43:52.399Z,4.76
2019-01-09T04:46:24.707Z,4.76
2019-01-09T04:48:57.346Z,4.70
2019-01-09T04:51:29.163Z,4.71
2019-01-09T04:54:01.371Z,4.68
2019-01-09T04:56:33.845Z,4.69
2019-01-09T04:59:06.052Z,4.68
2019-01-09T05:01:39.381Z,4.66
2019-01-09T05:04:13.971Z,4.72
2019-01-09T05:06:46.017Z,4.64
2019-01-09T05:09:18.457Z,4.64
2019-01-09T05:11:50.998Z,4.70
2019-01-09T05:14:22.776Z,4.64
2019-01-09T05:16:55.662Z,4.67
2019-01-09T05:19:27.530Z,4.71
2019-01-09T05:21:59.714Z,4.78
2019-01-09T05:24:33.194Z,4.73
2019-01-09T05:27:05.825Z,4.69
2019-01-09T05:29:39.020Z,4.74
2019-01-09T05:32:11.656Z,4.71
2019-01-09T05:34:44.456Z,4.79
2019-01-09T05:37:16.611Z,4.78
2019-01-09T05:39:48.755Z,4.73
2019-01-09T05:42:20.641Z,4.71
2019-01-09T05:44:52.654Z,4.71
2019-01-09T05:47:26.191Z,4.68
2019-01-09T05:49:59.282Z,4.73
2019-01-09T05:52:31.492Z,4.70
2019-01-09T05:55:03.717Z,4.67
2019-01-09T05:57:35.961Z,4.66
2019-01-09T06:00:10.270Z,4.79
2019-01-09T06:02:42.492Z,4.73
2019-01-09T06:05:14.830Z,4.70
2019-01-09T06:07:47.805Z,4.67
2019-01-09T06:10:19.627Z,4.70
2019-01-09T06:12:51.423Z,4.66
2019-01-09T06:15:25.851Z,4.66
2019-01-09T06:17:58.405Z,4.65
2019-01-09T06:20:30.608Z,4.64
2019-01-09T06:23:03.862Z,4.62
2019-01-09T06:25:37.413Z,4.64
2019-01-09T06:28:09.649Z,4.62
2019-01-09T06:30:41.947Z,4.66
2019-01-09T06:33:17.206Z,4.62
2019-01-09T06:35:49.765Z,4.63
2019-01-09T06:38:22.431Z,4.61
2019-01-09T06:40:54.719Z,4.68
2019-01-09T06:43:26.979Z,4.70
2019-01-09T06:45:59.179Z,4.69
2019-01-09T06:48:31.463Z,4.75
2019-01-09T06:51:04.141Z,4.67
2019-01-09T06:53:36.306Z,4.67
2019-01-09T06:56:09.203Z,4.73
2019-01-09T06:58:41.812Z,4.80
2019-01-09T07:01:14.436Z,4.84
2019-01-09T07:03:47.158Z,4.66
2019-01-09T07:06:20.258Z,4.60
2019-01-09T07:08:52.438Z,4.60
2019-01-09T07:11:25.306Z,4.59
2019-01-09T07:13:57.785Z,4.59
2019-01-09T07:16:29.543Z,4.62
2019-01-09T07:19:01.335Z,4.64
2019-01-09T07:21:33.703Z,4.60
2019-01-09T07:24:05.798Z,4.56
2019-01-09T07:26:38.606Z,4.53
2019-01-09T07:29:10.844Z,4.57
2019-01-09T07:31:43.742Z,4.52
2019-01-09T07:34:18.675Z,4.60
2019-01-09T07:36:51.727Z,4.60
2019-01-09T07:39:24.369Z,4.49
2019-01-09T07:41:56.623Z,4.55
2019-01-09T07:44:29.047Z,4.58
2019-01-09T07:47:01.650Z,4.59
2019-01-09T07:49:34.087Z,4.51
2019-01-09T07:52:07.263Z,4.50
2019-01-09T07:54:39.653Z,4.48
2019-01-09T07:57:12.294Z,4.51
2019-01-09T07:59:45.216Z,4.48
2019-01-09T08:02:18.071Z,4.42
2019-01-09T08:04:50.387Z,4.40
2019-01-09T08:07:22.426Z,4.40
2019-01-09T08:09:55.270Z,4.34
2019-01-09T08:12:27.569Z,4.36
2019-01-09T08:15:00.620Z,4.40
2019-01-09T08:17:34.303Z,4.40
2019-01-09T08:20:08.359Z,4.42
2019-01-09T08:22:41.872Z,4.33
2019-01-09T08:25:14.610Z,4.38
2019-01-09T08:27:47.036Z,4.41
2019-01-09T08:30:19.549Z,4.40
2019-01-09T08:32:52.206Z,4.37
2019-01-09T08:35:24.504Z,4.33
2019-01-09T08:38:02.615Z,4.34
2019-01-09T08:40:31.133Z,4.41
2019-01-09T08:43:03.455Z,4.48
2019-01-09T08:45:36.257Z,4.38
2019-01-09T08:48:09.494Z,4.37
2019-01-09T08:50:42.245Z,4.40
2019-01-09T08:53:15.333Z,4.38
2019-01-09T08:55:48.855Z,4.41
2019-01-09T08:58:21.531Z,4.40
2019-01-09T09:00:53.829Z,4.42
2019-01-09T09:03:26.360Z,4.61
2019-01-09T09:05:58.686Z,4.49
2019-01-09T09:08:32.828Z,4.50
2019-01-09T09:11:05.008Z,4.44
2019-01-09T09:13:43.449Z,4.47
2019-01-09T09:16:16.939Z,4.50
2019-01-09T09:18:49.781Z,4.45
2019-01-09T09:21:22.168Z,4.36
2019-01-09T09:23:55.601Z,4.40
2019-01-09T09:26:28.258Z,4.44
2019-01-09T09:29:00.415Z,4.46
2019-01-09T09:31:32.787Z,4.35
2019-01-09T09:34:05.434Z,4.37
2019-01-09T09:36:38.182Z,4.45
2019-01-09T09:39:12.148Z,4.34
2019-01-09T09:41:45.485Z,4.33
2019-01-09T09:44:17.842Z,4.41
2019-01-09T09:46:50.561Z,4.44
2019-01-09T09:49:23.386Z,4.39
2019-01-09T09:51:55.743Z,4.36
2019-01-09T09:54:29.379Z,4.31
2019-01-09T09:57:01.199Z,4.36
2019-01-09T09:59:33.486Z,4.49
2019-01-09T10:02:09.633Z,4.43
2019-01-09T10:04:51.066Z,4.43
2019-01-09T10:07:23.699Z,4.44
2019-01-09T10:09:58.771Z,4.51
2019-01-09T10:12:31.473Z,4.46
2019-01-09T10:15:03.402Z,4.49
2019-01-09T10:17:36.550Z,4.46
2019-01-09T10:20:14.560Z,4.58
2019-01-09T10:22:48.440Z,4.57
2019-01-09T10:25:21.235Z,4.51
2019-01-09T10:27:53.612Z,4.47
2019-01-09T10:30:26.013Z,4.47
2019-01-09T10:33:00.773Z,4.53
2019-01-09T10:35:33.538Z,4.57
2019-01-09T10:38:07.188Z,4.56
2019-01-09T10:40:39.963Z,4.56
2019-01-09T10:43:12.610Z,4.57
2019-01-09T10:45:45.385Z,4.48
2019-01-09T10:48:18.019Z,4.50
2019-01-09T10:50:51.384Z,4.46
2019-01-09T10:53:23.928Z,4.48
2019-01-09T10:55:58.332Z,4.50
2019-01-09T10:58:30.703Z,4.48
2019-01-09T11:01:02.956Z,4.49
2019-01-09T11:03:35.312Z,4.52
2019-01-09T11:06:08.232Z,4.53
2019-01-09T11:08:46.849Z,4.49
2019-01-09T11:11:15.659Z,4.47
2019-01-09T11:13:50.997Z,4.51
2019-01-09T11:16:23.399Z,4.51
2019-01-09T11:18:57.365Z,4.59
2019-01-09T11:21:29.329Z,4.53
2019-01-09T11:24:02.144Z,4.53
2019-01-09T11:26:35.046Z,4.49
2019-01-09T11:29:07.608Z,4.50
2019-01-09T11:34:34.391Z,4.54
2019-01-09T11:37:07.015Z,4.48
2019-01-09T11:39:41.157Z,4.51
2019-01-09T11:42:36.620Z,4.47
2019-01-09T11:45:13.408Z,4.53
2019-01-09T11:47:47.391Z,4.55
2019-01-09T11:50:21.152Z,4.54
2019-01-09T11:52:55.743Z,4.59
2019-01-09T11:55:28.194Z,4.61
2019-01-09T11:58:01.919Z,4.64
2019-01-09T12:00:34.141Z,4.64
2019-01-09T12:03:07.999Z,4.60
2019-01-09T12:05:41.380Z,4.66
2019-01-09T12:08:13.557Z,4.64
2019-01-09T12:10:46.315Z,4.63
2019-01-09T12:13:19.325Z,4.60
2019-01-09T12:15:51.844Z,4.66
2019-01-09T12:18:26.403Z,4.66
2019-01-09T12:20:59.423Z,4.69
2019-01-09T12:23:32.246Z,4.73
2019-01-09T12:26:04.663Z,4.64
2019-01-09T12:28:37.212Z,4.69
2019-01-09T12:31:28.470Z,4.70
2019-01-09T12:34:01.014Z,4.69
2019-01-09T12:36:34.293Z,4.73
2019-01-09T12:39:13.350Z,4.64
2019-01-09T12:41:43.469Z,4.69
2019-01-09T12:44:16.167Z,4.70
2019-01-09T12:46:49.087Z,4.64
2019-01-09T12:49:21.734Z,4.61
2019-01-09T12:51:54.718Z,4.65
2019-01-09T12:54:27.360Z,4.72
2019-01-09T12:57:02.832Z,4.76
2019-01-09T12:59:35.390Z,4.80
2019-01-09T13:02:07.835Z,4.72
2019-01-09T13:04:40.645Z,4.76
2019-01-09T13:07:14.163Z,4.74
2019-01-09T13:09:46.261Z,4.73
2019-01-09T13:12:19.119Z,4.82
2019-01-09T13:14:51.816Z,4.73
2019-01-09T13:17:24.503Z,4.71
2019-01-09T13:19:56.966Z,4.71
2019-01-09T13:22:30.088Z,4.72
2019-01-09T13:25:03.491Z,4.70
2019-01-09T13:27:36.578Z,4.65
2019-01-09T13:30:13.458Z,4.74
2019-01-09T13:32:46.907Z,4.78
2019-01-09T13:35:19.271Z,4.82
2019-01-09T13:37:51.628Z,4.79
2019-01-09T13:40:24.115Z,4.63
2019-01-09T13:42:56.132Z,4.62
2019-01-09T13:45:28.353Z,4.59
2019-01-09T13:48:01.012Z,4.69
2019-01-09T13:50:33.602Z,4.72
2019-01-09T13:53:05.669Z,4.64
2019-01-09T13:55:38.713Z,4.67
2019-01-09T13:58:11.041Z,4.62
2019-01-09T14:00:43.127Z,4.61
2019-01-09T14:03:15.926Z,4.54
2019-01-09T14:05:49.071Z,4.49
2019-01-09T14:08:22.527Z,4.54
2019-01-09T14:10:55.452Z,4.58
2019-01-09T14:13:29.739Z,4.52
2019-01-09T14:16:03.006Z,4.62
2019-01-09T14:18:35.296Z,4.65
2019-01-09T14:21:07.729Z,4.58
2019-01-09T14:23:39.659Z,4.61
2019-01-09T14:26:14.016Z,4.59
2019-01-09T14:28:47.203Z,4.56
2019-01-09T14:31:20.131Z,4.58
2019-01-09T14:33:53.040Z,4.58
2019-01-09T14:36:24.979Z,4.59
2019-01-09T14:39:36.373Z,4.56
2019-01-09T14:42:10.193Z,4.59
2019-01-09T14:44:43.511Z,4.54
2019-01-09T14:47:16.254Z,4.57
2019-01-09T14:49:51.766Z,4.59
2019-01-09T14:52:24.531Z,4.60
2019-01-09T14:54:57.667Z,4.63
2019-01-09T14:57:30.102Z,4.56
2019-01-09T15:00:02.104Z,4.62
2019-01-09T15:02:36.480Z,4.63
2019-01-09T15:05:10.213Z,4.59
2019-01-09T15:07:44.038Z,4.63
2019-01-09T15:10:31.503Z,4.59
2019-01-09T15:13:04.341Z,4.51
2019-01-09T15:15:36.938Z,4.49
2019-01-09T15:18:09.603Z,4.57
2019-01-09T15:20:43.011Z,4.51
2019-01-09T15:23:15.606Z,4.54
2019-01-09T15:25:49.051Z,4.46
2019-01-09T15:31:13.628Z,4.48
2019-01-09T15:33:46.334Z,4.49
2019-01-09T15:36:19.046Z,4.55
2019-01-09T15:38:52.102Z,4.58
2019-01-09T15:41:25.023Z,4.58
2019-01-09T15:43:59.361Z,4.57
2019-01-09T15:46:35.624Z,4.55
2019-01-09T15:49:09.021Z,4.52
2019-01-09T15:51:41.992Z,4.50
2019-01-09T15:54:14.925Z,4.51
2019-01-09T15:56:54.165Z,4.48
2019-01-09T15:59:26.477Z,4.49
2019-01-09T16:01:59.999Z,4.46
2019-01-09T16:04:33.680Z,4.41
2019-01-09T16:07:07.229Z,4.46
2019-01-09T16:09:39.611Z,4.47
2019-01-09T16:12:12.005Z,4.46
2019-01-09T16:14:44.059Z,4.45
2019-01-09T16:17:18.736Z,4.37
2019-01-09T16:19:51.161Z,4.27
2019-01-09T16:22:25.551Z,4.20
2019-01-09T16:24:58.220Z,4.20
2019-01-09T16:27:31.232Z,4.21
2019-01-09T16:30:06.098Z,4.24
2019-01-09T16:32:38.939Z,4.24
2019-01-09T16:35:11.472Z,4.28
2019-01-09T16:37:44.262Z,4.21
2019-01-09T16:40:23.282Z,4.25
2019-01-09T16:42:52.826Z,4.28
2019-01-09T16:45:27.180Z,4.27
2019-01-09T16:48:00.231Z,4.27
2019-01-09T16:50:32.319Z,4.35
2019-01-09T16:53:05.922Z,4.32
2019-01-09T16:55:38.304Z,4.26
2019-01-09T16:58:10.565Z,4.29
2019-01-09T17:00:42.695Z,4.35
2019-01-09T17:03:15.769Z,4.41
2019-01-09T17:05:50.408Z,4.47
2019-01-09T17:08:23.912Z,4.60
2019-01-09T17:10:56.445Z,4.43
2019-01-09T17:13:29.357Z,4.37
2019-01-09T17:16:02.041Z,4.35
2019-01-09T17:18:34.559Z,4.40
2019-01-09T17:21:08.009Z,4.41
2019-01-09T17:23:40.938Z,4.30
2019-01-09T17:26:13.614Z,4.35
2019-01-09T17:28:45.936Z,4.31
2019-01-09T17:31:18.972Z,4.35
2019-01-09T17:33:53.062Z,4.31
2019-01-09T17:36:26.089Z,4.34
2019-01-09T17:38:58.410Z,4.32
2019-01-09T17:41:31.190Z,4.36
2019-01-09T17:44:03.869Z,4.31
2019-01-09T17:46:36.266Z,4.40
2019-01-09T17:49:09.019Z,4.35
2019-01-09T17:51:42.554Z,4.43
2019-01-09T17:54:16.728Z,4.36
2019-01-09T17:56:51.174Z,4.39
2019-01-09T17:59:23.595Z,4.33
2019-01-09T18:01:56.331Z,4.33
2019-01-09T18:04:30.262Z,4.42
2019-01-09T18:07:04.232Z,4.52
2019-01-09T18:09:38.647Z,4.40
2019-01-09T18:12:10.967Z,4.42
2019-01-09T18:14:43.561Z,4.38
2019-01-09T18:17:16.785Z,4.37
2019-01-09T18:19:49.962Z,4.46
2019-01-09T18:22:22.778Z,4.44
2019-01-09T18:24:55.629Z,4.46
2019-01-09T18:27:29.312Z,4.42
2019-01-09T18:30:02.362Z,4.44
2019-01-09T18:33:05.533Z,4.51
2019-01-09T18:36:33.696Z,4.44
2019-01-09T18:40:04.722Z,4.40
2019-01-09T18:43:21.897Z,4.44
2019-01-09T18:47:02.927Z,4.35
2019-01-09T18:50:24.345Z,4.33
2019-01-09T18:53:18.046Z,4.27
2019-01-09T18:55:51.192Z,4.28
2019-01-09T18:58:23.519Z,4.28
2019-01-09T19:00:56.960Z,4.10
2019-01-09T19:03:35.233Z,4.21
2019-01-09T19:06:07.784Z,4.25
2019-01-09T19:08:42.154Z,4.21
2019-01-09T19:11:14.906Z,4.22
2019-01-09T19:13:47.660Z,4.22
2019-01-09T19:16:21.964Z,4.13
2019-01-09T19:18:55.631Z,4.22
2019-01-09T19:21:28.146Z,4.23
2019-01-09T19:24:02.609Z,4.15
2019-01-09T19:26:35.069Z,4.09
2019-01-09T19:29:09.012Z,4.07
2019-01-09T19:31:41.861Z,4.06
2019-01-09T19:34:15.994Z,4.12
2019-01-09T19:36:48.670Z,4.13
2019-01-09T19:39:21.172Z,4.12
2019-01-09T19:41:55.016Z,4.04
2019-01-09T19:44:29.595Z,4.05
2019-01-09T19:47:01.941Z,4.07
2019-01-09T19:49:34.197Z,4.13
2019-01-09T19:52:07.210Z,4.19
2019-01-09T19:54:39.713Z,4.07
2019-01-09T19:57:13.166Z,4.09
2019-01-09T19:59:45.051Z,4.10
2019-01-09T20:02:19.936Z,4.07
2019-01-09T20:04:52.917Z,4.10
2019-01-09T20:07:26.248Z,4.02
2019-01-09T20:09:58.872Z,4.06
2019-01-09T20:12:31.944Z,4.09
2019-01-09T20:15:05.493Z,4.09
2019-01-09T20:17:39.488Z,4.00
2019-01-09T20:20:16.013Z,3.99
2019-01-09T20:22:51.000Z,3.96
2019-01-09T20:25:24.327Z,3.95
2019-01-09T20:27:56.734Z,3.94
2019-01-09T20:30:31.331Z,3.96
2019-01-09T20:33:03.330Z,3.98
2019-01-09T20:35:36.734Z,4.08
2019-01-09T20:38:11.674Z,3.99
2019-01-09T20:40:47.392Z,3.99
2019-01-09T20:43:20.266Z,3.96
2019-01-09T20:45:54.608Z,4.03
2019-01-09T20:48:27.639Z,3.98
2019-01-09T20:51:00.500Z,3.95
2019-01-09T20:53:34.246Z,3.95
2019-01-09T20:56:07.023Z,3.86
2019-01-09T20:58:39.639Z,3.87
2019-01-09T21:01:12.750Z,3.85
2019-01-09T21:03:45.527Z,3.89
2019-01-09T21:06:19.089Z,3.75
2019-01-09T21:08:59.573Z,3.81
2019-01-09T21:11:28.428Z,3.83
2019-01-09T21:14:01.707Z,3.84
2019-01-09T21:16:35.915Z,3.77
2019-01-09T21:19:09.020Z,3.73
2019-01-09T21:21:42.469Z,3.72
2019-01-09T21:24:15.943Z,3.68
2019-01-09T21:26:48.245Z,3.77
2019-01-09T21:29:20.626Z,3.78
2019-01-09T21:31:52.569Z,3.85
2019-01-09T21:34:25.726Z,3.80
2019-01-09T21:36:59.121Z,3.68
2019-01-09T21:39:32.205Z,3.64
2019-01-09T21:42:05.892Z,3.61
2019-01-09T21:44:38.231Z,3.77
2019-01-09T21:47:11.733Z,3.77
2019-01-09T21:49:45.290Z,3.78
2019-01-09T21:52:18.445Z,3.74
2019-01-09T21:54:52.419Z,3.65
2019-01-09T21:57:24.914Z,3.72
2019-01-09T21:59:57.358Z,3.74
2019-01-09T22:02:29.504Z,3.65
2019-01-09T22:05:01.988Z,3.65
2019-01-09T22:07:34.757Z,3.65
2019-01-09T22:10:13.185Z,3.72
2019-01-09T22:12:45.913Z,3.75
2019-01-09T22:15:19.374Z,3.74
2019-01-09T22:17:52.168Z,3.70
2019-01-09T22:20:26.033Z,3.82
2019-01-09T22:23:00.200Z,3.80
2019-01-09T22:25:33.215Z,3.71
2019-01-09T22:28:05.429Z,3.70
2019-01-09T22:30:38.879Z,3.72
2019-01-09T22:33:11.358Z,3.80
2019-01-09T22:35:45.123Z,3.82
2019-01-09T22:38:18.932Z,3.81
2019-01-09T22:40:51.689Z,3.85
2019-01-09T22:43:24.624Z,3.87
2019-01-09T22:45:57.674Z,3.87
2019-01-09T22:48:29.942Z,3.95
2019-01-09T22:51:03.020Z,3.89
2019-01-09T22:53:36.576Z,3.87
2019-01-09T22:56:09.307Z,3.94
2019-01-09T22:58:42.893Z,3.83
2019-01-09T23:01:26.320Z,3.83
2019-01-09T23:04:00.704Z,3.91
2019-01-09T23:06:33.076Z,3.85
2019-01-09T23:09:09.195Z,3.81
2019-01-09T23:11:43.329Z,3.92
2019-01-09T23:14:18.224Z,3.82
2019-01-09T23:16:53.105Z,3.84
2019-01-09T23:19:25.264Z,3.91
2019-01-09T23:21:57.966Z,3.85
2019-01-09T23:24:31.065Z,3.78
2019-01-09T23:27:03.485Z,3.72
2019-01-09T23:29:36.295Z,3.73
2019-01-09T23:32:08.206Z,3.74
2019-01-09T23:34:42.053Z,3.78
2019-01-09T23:37:15.565Z,3.79
2019-01-09T23:39:47.892Z,3.72
2019-01-09T23:42:19.749Z,3.69
2019-01-09T23:44:52.116Z,3.67
2019-01-09T23:48:59.294Z,3.83
2019-01-09T23:51:31.139Z,3.74
2019-01-09T23:54:03.376Z,3.76
2019-01-09T23:56:35.594Z,3.84
2019-01-09T23:59:07.634Z,3.81
